createdAt,value
2022-07-27T00:01:12.109Z,15.90
2022-07-27T00:03:38.942Z,15.90
2022-07-27T00:06:06.590Z,15.90
2022-07-27T00:08:33.879Z,16.00
2022-07-27T00:11:00.839Z,16.00
2022-07-27T00:13:28.778Z,16.00
2022-07-27T00:15:55.918Z,16.00
2022-07-27T00:18:23.011Z,16.00
2022-07-27T00:20:50.037Z,16.10
2022-07-27T00:23:16.795Z,16.10
2022-07-27T00:25:43.767Z,16.10
2022-07-27T00:28:10.890Z,16.10
2022-07-27T00:30:37.732Z,16.10
2022-07-27T00:33:06.809Z,16.10
2022-07-27T00:35:35.769Z,16.10
2022-07-27T00:38:02.807Z,16.10
2022-07-27T00:40:29.680Z,16.10
2022-07-27T00:42:56.683Z,16.10
2022-07-27T00:45:23.864Z,16.10
2022-07-27T00:47:54.770Z,16.00
2022-07-27T00:50:24.528Z,16.00
2022-07-27T00:52:51.990Z,15.90
2022-07-27T00:55:22.387Z,15.90
2022-07-27T00:57:58.544Z,15.90
2022-07-27T01:00:27.717Z,15.80
2022-07-27T01:02:57.136Z,15.70
2022-07-27T01:05:34.296Z,15.70
2022-07-27T01:08:07.257Z,15.60
2022-07-27T01:10:34.528Z,15.60
2022-07-27T01:13:02.207Z,15.70
2022-07-27T01:15:29.510Z,15.60
2022-07-27T01:17:58.873Z,15.60
2022-07-27T01:20:26.051Z,15.50
2022-07-27T01:22:52.795Z,15.40
2022-07-27T01:25:22.418Z,15.40
2022-07-27T01:27:49.182Z,15.50
2022-07-27T01:30:28.813Z,15.40
2022-07-27T01:33:07.100Z,15.40
2022-07-27T01:35:37.565Z,15.30
2022-07-27T01:38:05.467Z,15.30
2022-07-27T01:40:32.673Z,15.30
2022-07-27T01:42:59.472Z,15.30
2022-07-27T01:45:26.557Z,15.20
2022-07-27T01:47:53.311Z,15.20
2022-07-27T01:50:20.329Z,15.20
2022-07-27T01:52:47.059Z,15.20
2022-07-27T01:55:13.836Z,15.20
2022-07-27T01:57:40.916Z,15.20
2022-07-27T02:00:12.141Z,15.10
2022-07-27T02:02:38.935Z,15.10
2022-07-27T02:05:13.488Z,15.00
2022-07-27T02:07:41.645Z,15.00
2022-07-27T02:10:09.876Z,14.90
2022-07-27T02:12:39.312Z,14.90
2022-07-27T02:15:21.731Z,14.80
2022-07-27T02:17:53.036Z,14.70
2022-07-27T02:20:23.164Z,14.60
2022-07-27T02:22:55.211Z,14.50
2022-07-27T02:25:22.337Z,14.40
2022-07-27T02:27:49.183Z,14.40
2022-07-27T02:30:17.725Z,14.40
2022-07-27T02:32:45.300Z,14.40
2022-07-27T02:35:18.538Z,14.50
2022-07-27T02:37:47.916Z,14.40
2022-07-27T02:40:17.311Z,14.50
2022-07-27T02:42:45.320Z,14.50
2022-07-27T02:45:12.122Z,14.40
2022-07-27T02:47:42.604Z,14.30
2022-07-27T02:50:12.736Z,14.30
2022-07-27T02:52:42.617Z,14.20
2022-07-27T02:55:10.560Z,14.20
2022-07-27T02:57:40.895Z,14.10
2022-07-27T03:00:13.780Z,14.10
2022-07-27T03:02:40.983Z,14.10
2022-07-27T03:05:09.658Z,14.00
2022-07-27T03:07:39.485Z,14.00
2022-07-27T03:10:09.562Z,14.00
2022-07-27T03:12:36.302Z,13.90
2022-07-27T03:15:06.940Z,13.90
2022-07-27T03:17:33.971Z,13.80
2022-07-27T03:20:00.730Z,13.80
2022-07-27T03:22:31.061Z,13.70
2022-07-27T03:24:57.983Z,13.60
2022-07-27T03:27:29.387Z,13.60
2022-07-27T03:29:56.998Z,13.60
2022-07-27T03:32:23.816Z,13.50
2022-07-27T03:34:50.880Z,13.60
2022-07-27T03:37:19.008Z,13.50
2022-07-27T03:39:48.985Z,13.50
2022-07-27T03:42:15.753Z,13.40
2022-07-27T03:44:48.050Z,13.30
2022-07-27T03:47:14.836Z,13.30
2022-07-27T03:49:41.847Z,13.20
2022-07-27T03:52:17.205Z,13.10
2022-07-27T03:54:44.802Z,13.10
2022-07-27T03:57:11.562Z,13.10
2022-07-27T03:59:41.718Z,13.10
2022-07-27T04:02:08.561Z,13.10
2022-07-27T04:04:38.771Z,13.10
2022-07-27T04:07:05.588Z,13.20
2022-07-27T04:09:32.640Z,13.20
2022-07-27T04:11:59.605Z,13.30
2022-07-27T04:14:26.702Z,13.30
2022-07-27T04:16:53.536Z,13.40
2022-07-27T04:19:20.618Z,13.50
2022-07-27T04:21:47.742Z,13.50
2022-07-27T04:24:15.032Z,13.50
2022-07-27T04:26:50.151Z,13.50
2022-07-27T04:29:20.965Z,13.60
2022-07-27T04:31:48.050Z,13.70
2022-07-27T04:34:15.136Z,13.90
2022-07-27T04:36:47.164Z,14.10
2022-07-27T04:39:16.184Z,14.20
2022-07-27T04:41:43.203Z,14.40
2022-07-27T04:44:10.006Z,14.50
2022-07-27T04:46:37.485Z,14.60
2022-07-27T04:49:04.372Z,14.70
2022-07-27T04:51:35.664Z,14.80
2022-07-27T04:54:02.777Z,14.80
2022-07-27T04:56:29.686Z,14.90
2022-07-27T04:59:02.982Z,14.90
2022-07-27T05:01:34.989Z,14.90
2022-07-27T05:04:05.672Z,15.00
2022-07-27T05:06:33.419Z,15.10
2022-07-27T05:09:00.444Z,15.10
2022-07-27T05:11:30.477Z,15.10
2022-07-27T05:14:00.594Z,15.10
2022-07-27T05:16:28.969Z,15.20
2022-07-27T05:18:56.488Z,15.20
2022-07-27T05:21:27.341Z,15.30
2022-07-27T05:23:54.413Z,15.40
2022-07-27T05:26:24.574Z,15.40
2022-07-27T05:28:54.586Z,15.50
2022-07-27T05:31:21.364Z,15.60
2022-07-27T05:33:53.385Z,15.50
2022-07-27T05:36:24.300Z,15.60
2022-07-27T05:38:51.299Z,15.80
2022-07-27T05:41:26.575Z,15.80
2022-07-27T05:43:57.445Z,15.90
2022-07-27T05:46:25.606Z,16.10
2022-07-27T05:48:54.198Z,16.00
2022-07-27T05:51:21.013Z,16.10
2022-07-27T05:53:47.995Z,16.20
2022-07-27T05:56:16.930Z,16.00
2022-07-27T05:58:43.641Z,16.00
2022-07-27T06:01:10.658Z,16.00
2022-07-27T06:03:38.446Z,15.90
2022-07-27T06:06:23.916Z,15.80
2022-07-27T06:08:50.812Z,15.80
2022-07-27T06:11:20.208Z,15.90
2022-07-27T06:13:47.215Z,15.90
2022-07-27T06:16:14.019Z,16.10
2022-07-27T06:18:40.863Z,16.10
2022-07-27T06:21:11.015Z,16.10
2022-07-27T06:23:37.806Z,16.00
2022-07-27T06:26:05.263Z,16.10
2022-07-27T06:28:32.462Z,16.10
2022-07-27T06:30:59.952Z,16.00
2022-07-27T06:33:29.252Z,16.00
2022-07-27T06:35:57.374Z,16.00
2022-07-27T06:38:26.003Z,16.10
2022-07-27T06:40:53.725Z,16.00
2022-07-27T06:43:28.612Z,16.00
2022-07-27T06:45:55.878Z,16.00
2022-07-27T06:48:22.710Z,16.10
2022-07-27T06:50:50.784Z,16.10
2022-07-27T06:53:21.148Z,16.10
2022-07-27T06:55:51.816Z,16.00
2022-07-27T06:58:19.439Z,15.90
2022-07-27T07:00:46.318Z,16.00
2022-07-27T07:03:13.485Z,16.30
2022-07-27T07:05:47.770Z,16.40
2022-07-27T07:08:15.076Z,16.50
2022-07-27T07:10:44.224Z,16.20
2022-07-27T07:13:11.526Z,15.70
2022-07-27T07:15:42.682Z,15.50
2022-07-27T07:18:13.081Z,15.30
2022-07-27T07:20:40.649Z,15.10
2022-07-27T07:23:10.561Z,14.90
2022-07-27T07:25:38.649Z,15.00
2022-07-27T07:28:07.021Z,15.00
2022-07-27T07:30:34.115Z,15.10
2022-07-27T07:33:02.060Z,15.00
2022-07-27T07:35:29.502Z,14.90
2022-07-27T07:37:56.293Z,14.90
2022-07-27T07:43:13.046Z,15.00
2022-07-27T07:45:50.834Z,15.10
2022-07-27T07:48:20.549Z,15.10
2022-07-27T07:50:54.082Z,15.10
2022-07-27T07:53:27.241Z,15.00
2022-07-27T07:55:56.983Z,15.00
2022-07-27T07:58:26.483Z,15.10
2022-07-27T08:00:53.371Z,15.10
2022-07-27T08:03:23.211Z,15.20
2022-07-27T08:05:50.297Z,15.40
2022-07-27T08:08:18.080Z,15.60
2022-07-27T08:10:44.908Z,15.80
2022-07-27T08:13:12.000Z,16.10
2022-07-27T08:15:38.819Z,16.40
2022-07-27T08:18:06.795Z,16.70
2022-07-27T08:20:34.258Z,16.90
2022-07-27T08:23:01.721Z,17.10
2022-07-27T08:25:28.546Z,17.10
2022-07-27T08:27:57.969Z,16.80
2022-07-27T08:30:24.942Z,16.30
2022-07-27T08:33:03.284Z,16.10
2022-07-27T08:35:32.203Z,15.90
2022-07-27T08:38:10.287Z,15.90
2022-07-27T08:40:41.963Z,16.00
2022-07-27T08:43:14.005Z,16.20
2022-07-27T08:45:45.586Z,16.30
2022-07-27T08:48:14.452Z,16.50
2022-07-27T08:50:42.917Z,16.70
2022-07-27T08:53:18.427Z,16.50
2022-07-27T08:55:52.276Z,16.30
2022-07-27T08:58:19.211Z,16.10
2022-07-27T09:00:54.884Z,16.00
2022-07-27T09:03:26.184Z,15.90
2022-07-27T09:05:55.433Z,15.90
2022-07-27T09:08:30.282Z,16.10
2022-07-27T09:11:00.173Z,16.60
2022-07-27T09:13:30.553Z,16.70
2022-07-27T09:16:18.461Z,16.70
2022-07-27T09:18:46.399Z,16.70
2022-07-27T09:21:14.707Z,16.70
2022-07-27T09:23:44.596Z,16.80
2022-07-27T09:26:30.601Z,16.80
2022-07-27T09:29:05.077Z,17.10
2022-07-27T09:31:33.366Z,17.20
2022-07-27T09:34:04.419Z,16.90
2022-07-27T09:36:31.927Z,17.00
2022-07-27T09:39:09.019Z,17.30
2022-07-27T09:41:44.190Z,17.20
2022-07-27T09:44:31.866Z,16.90
2022-07-27T09:47:00.030Z,16.70
2022-07-27T09:49:38.259Z,16.80
2022-07-27T09:52:08.438Z,17.00
2022-07-27T09:54:43.658Z,17.40
2022-07-27T09:57:10.959Z,17.70
2022-07-27T09:59:37.812Z,18.10
2022-07-27T10:02:06.110Z,18.20
2022-07-27T10:04:33.648Z,18.60
2022-07-27T10:07:03.996Z,18.90
2022-07-27T10:09:35.274Z,18.80
2022-07-27T10:12:04.656Z,18.80
2022-07-27T10:14:32.922Z,18.60
2022-07-27T10:17:03.120Z,18.10
2022-07-27T10:19:39.889Z,17.60
2022-07-27T10:22:06.755Z,17.40
2022-07-27T10:24:37.419Z,17.60
2022-07-27T10:27:31.138Z,17.80
2022-07-27T10:30:01.211Z,18.10
2022-07-27T10:32:33.117Z,18.50
2022-07-27T10:35:01.488Z,18.80
2022-07-27T10:37:31.058Z,18.70
2022-07-27T10:40:23.742Z,18.60
2022-07-27T10:42:54.367Z,18.50
2022-07-27T10:45:22.422Z,18.60
2022-07-27T10:47:52.930Z,18.60
2022-07-27T10:50:21.095Z,18.70
2022-07-27T10:53:00.141Z,19.00
2022-07-27T10:55:30.358Z,19.20
2022-07-27T10:58:03.572Z,19.00
2022-07-27T11:00:55.700Z,18.90
2022-07-27T11:03:42.397Z,19.00
2022-07-27T11:11:53.591Z,19.40
2022-07-27T11:14:30.671Z,19.80
2022-07-27T11:17:32.229Z,19.70
2022-07-27T11:20:13.398Z,19.80
2022-07-27T11:25:29.548Z,20.10
2022-07-27T11:27:56.395Z,20.00
2022-07-27T11:30:30.942Z,19.60
2022-07-27T11:33:03.384Z,19.40
2022-07-27T11:35:31.560Z,19.30
2022-07-27T11:38:03.896Z,19.20
2022-07-27T11:43:39.536Z,19.70
2022-07-27T11:46:28.244Z,19.90
2022-07-27T11:49:08.676Z,19.90
2022-07-27T11:51:39.679Z,19.90
2022-07-27T11:54:21.095Z,19.80
2022-07-27T11:56:50.384Z,19.70
2022-07-27T11:59:30.919Z,19.50
2022-07-27T12:02:04.643Z,19.80
2022-07-27T12:04:34.662Z,19.90
2022-07-27T12:07:12.388Z,20.10
2022-07-27T12:09:58.803Z,20.20
2022-07-27T12:12:29.731Z,20.20
2022-07-27T12:15:00.783Z,20.10
2022-07-27T12:17:40.929Z,20.20
2022-07-27T12:20:09.293Z,20.70
2022-07-27T12:22:39.175Z,21.00
2022-07-27T12:25:17.043Z,20.70
2022-07-27T12:27:54.914Z,20.60
2022-07-27T12:30:31.610Z,20.50
2022-07-27T12:32:59.214Z,20.20
2022-07-27T12:35:37.307Z,20.30
2022-07-27T12:38:10.295Z,20.30
2022-07-27T12:40:50.652Z,20.30
2022-07-27T12:43:25.246Z,20.30
2022-07-27T12:45:56.222Z,20.30
2022-07-27T12:48:28.874Z,20.50
2022-07-27T12:51:05.252Z,20.70
2022-07-27T12:53:41.699Z,20.70
2022-07-27T12:56:13.501Z,20.70
2022-07-27T12:58:41.353Z,20.90
2022-07-27T13:01:08.996Z,21.50
2022-07-27T13:03:37.120Z,22.30
2022-07-27T13:06:07.923Z,22.40
2022-07-27T13:08:43.174Z,22.60
2022-07-27T13:11:13.818Z,22.30
2022-07-27T13:13:41.099Z,22.20
2022-07-27T13:16:07.933Z,21.80
2022-07-27T13:18:35.100Z,21.30
2022-07-27T13:21:01.982Z,21.30
2022-07-27T13:23:29.627Z,21.40
2022-07-27T13:25:59.449Z,21.70
2022-07-27T13:28:26.334Z,22.10
2022-07-27T13:30:53.210Z,22.20
2022-07-27T13:33:20.085Z,21.50
2022-07-27T13:35:58.966Z,20.90
2022-07-27T13:38:29.120Z,20.60
2022-07-27T13:40:56.139Z,20.70
2022-07-27T13:43:23.080Z,20.90
2022-07-27T13:45:50.455Z,21.10
2022-07-27T13:48:17.188Z,21.30
2022-07-27T13:50:44.142Z,21.40
2022-07-27T13:53:15.864Z,21.30
2022-07-27T13:55:44.682Z,21.30
2022-07-27T13:58:14.313Z,21.30
2022-07-27T14:00:41.293Z,21.60
2022-07-27T14:03:09.634Z,22.10
2022-07-27T14:05:39.555Z,22.10
2022-07-27T14:08:12.347Z,22.00
2022-07-27T14:10:40.059Z,22.20
2022-07-27T14:13:10.875Z,22.40
2022-07-27T14:15:50.295Z,22.70
2022-07-27T14:18:20.948Z,22.90
2022-07-27T14:20:48.342Z,23.10
2022-07-27T14:23:15.813Z,22.50
2022-07-27T14:25:42.693Z,21.90
2022-07-27T14:28:10.609Z,21.30
2022-07-27T14:30:37.489Z,21.40
2022-07-27T14:33:06.999Z,22.00
2022-07-27T14:35:39.945Z,22.70
2022-07-27T14:38:08.124Z,23.50
2022-07-27T14:40:35.339Z,23.70
2022-07-27T14:43:02.692Z,23.10
2022-07-27T14:45:44.042Z,22.90
2022-07-27T14:48:20.348Z,22.60
2022-07-27T14:50:50.106Z,22.10
2022-07-27T14:53:17.488Z,22.20
2022-07-27T14:55:48.079Z,22.30
2022-07-27T14:58:14.904Z,22.20
2022-07-27T15:00:42.259Z,21.60
2022-07-27T15:03:09.160Z,21.30
2022-07-27T15:05:49.988Z,21.80
2022-07-27T15:08:18.804Z,23.20
2022-07-27T15:10:46.679Z,24.10
2022-07-27T15:13:17.933Z,24.80
2022-07-27T15:15:49.166Z,25.30
2022-07-27T15:18:19.178Z,25.80
2022-07-27T15:20:46.267Z,26.20
2022-07-27T15:23:13.881Z,26.00
2022-07-27T15:25:41.394Z,25.90
2022-07-27T15:28:09.706Z,25.40
2022-07-27T15:30:38.852Z,24.80
2022-07-27T15:33:08.976Z,24.00
2022-07-27T15:35:36.448Z,23.20
2022-07-27T15:38:03.631Z,22.90
2022-07-27T15:40:41.922Z,23.10
2022-07-27T15:43:14.082Z,22.90
2022-07-27T15:45:49.660Z,22.90
2022-07-27T15:48:21.779Z,23.70
2022-07-27T15:50:54.518Z,24.90
2022-07-27T15:53:22.695Z,25.60
2022-07-27T15:55:52.892Z,26.20
2022-07-27T15:58:20.259Z,26.40
2022-07-27T16:00:53.716Z,26.00
2022-07-27T16:03:31.152Z,25.60
2022-07-27T16:05:58.692Z,25.30
2022-07-27T16:08:27.621Z,25.20
2022-07-27T16:10:54.421Z,25.20
2022-07-27T16:13:21.359Z,25.10
2022-07-27T16:16:14.170Z,25.70
2022-07-27T16:18:41.468Z,26.10
2022-07-27T16:21:08.330Z,26.70
2022-07-27T16:23:35.746Z,27.30
2022-07-27T16:26:05.074Z,27.50
2022-07-27T16:28:34.201Z,27.20
2022-07-27T16:31:01.451Z,27.40
2022-07-27T16:33:32.523Z,27.20
2022-07-27T16:36:00.487Z,27.30
2022-07-27T16:38:27.735Z,27.50
2022-07-27T16:40:55.238Z,27.50
2022-07-27T16:43:22.015Z,27.70
2022-07-27T16:45:48.870Z,27.70
2022-07-27T16:48:15.817Z,27.60
2022-07-27T16:50:43.063Z,27.00
2022-07-27T16:53:10.960Z,26.60
2022-07-27T16:55:37.745Z,26.00
2022-07-27T16:58:05.303Z,24.70
2022-07-27T17:00:38.182Z,23.70
2022-07-27T17:03:06.395Z,23.50
2022-07-27T17:05:35.839Z,23.40
2022-07-27T17:08:02.717Z,23.40
2022-07-27T17:10:31.044Z,23.50
2022-07-27T17:12:58.172Z,24.00
2022-07-27T17:15:26.210Z,24.50
2022-07-27T17:17:53.086Z,24.10
2022-07-27T17:20:32.971Z,24.00
2022-07-27T17:23:06.001Z,23.90
2022-07-27T17:25:32.782Z,23.20
2022-07-27T17:27:59.516Z,22.60
2022-07-27T17:30:26.319Z,22.80
2022-07-27T17:32:53.897Z,23.40
2022-07-27T17:35:21.254Z,23.50
2022-07-27T17:38:07.672Z,22.90
2022-07-27T17:40:35.624Z,21.90
2022-07-27T17:43:05.210Z,21.10
2022-07-27T17:45:32.027Z,20.50
2022-07-27T17:47:59.266Z,20.20
2022-07-27T17:50:28.719Z,20.00
2022-07-27T17:52:59.300Z,19.70
2022-07-27T17:55:26.252Z,19.40
2022-07-27T17:57:56.180Z,19.20
2022-07-27T18:00:23.535Z,19.00
2022-07-27T18:02:50.341Z,18.90
2022-07-27T18:05:24.679Z,18.80
2022-07-27T18:07:53.660Z,18.70
2022-07-27T18:10:21.692Z,18.60
2022-07-27T18:12:48.473Z,18.50
2022-07-27T18:15:35.197Z,18.40
2022-07-27T18:18:02.019Z,18.40
2022-07-27T18:20:29.199Z,18.30
2022-07-27T18:22:56.234Z,18.10
2022-07-27T18:25:23.219Z,18.10
2022-07-27T18:27:50.734Z,17.90
2022-07-27T18:30:18.053Z,17.80
2022-07-27T18:32:45.510Z,17.70
2022-07-27T18:35:13.494Z,17.60
2022-07-27T18:37:40.504Z,17.50
2022-07-27T18:40:09.580Z,17.30
2022-07-27T18:42:38.108Z,17.30
2022-07-27T18:45:07.316Z,17.20
2022-07-27T18:47:38.625Z,17.10
2022-07-27T18:50:06.622Z,17.00
2022-07-27T18:52:34.812Z,16.80
2022-07-27T18:55:01.578Z,16.70
2022-07-27T18:57:28.991Z,16.60
2022-07-27T18:59:56.208Z,16.50
2022-07-27T19:02:25.670Z,16.50
2022-07-27T19:04:54.452Z,16.40
2022-07-27T19:07:21.961Z,16.30
2022-07-27T19:09:51.275Z,16.20
2022-07-27T19:12:21.033Z,16.10
2022-07-27T19:14:50.178Z,16.00
2022-07-27T19:17:20.076Z,15.70
2022-07-27T19:19:50.029Z,15.40
2022-07-27T19:22:16.901Z,15.30
2022-07-27T19:24:44.251Z,15.30
2022-07-27T19:27:11.100Z,15.20
2022-07-27T19:29:38.273Z,15.00
2022-07-27T19:32:07.867Z,14.90
2022-07-27T19:34:38.418Z,14.80
2022-07-27T19:37:05.341Z,14.80
2022-07-27T19:40:02.059Z,14.80
2022-07-27T19:42:25.194Z,14.80
2022-07-27T19:44:52.439Z,14.60
2022-07-27T19:47:20.825Z,14.40
2022-07-27T19:49:50.732Z,14.20
2022-07-27T19:52:18.490Z,14.10
2022-07-27T19:54:45.692Z,14.00
2022-07-27T19:57:12.837Z,13.80
2022-07-27T19:59:55.319Z,13.70
2022-07-27T20:02:24.091Z,13.70
2022-07-27T20:04:51.811Z,13.50
2022-07-27T20:07:18.570Z,13.40
2022-07-27T20:09:45.386Z,13.30
2022-07-27T20:12:12.629Z,13.30
2022-07-27T20:14:39.437Z,13.20
2022-07-27T20:17:06.935Z,13.10
2022-07-27T20:19:34.794Z,13.10
2022-07-27T20:22:02.336Z,13.10
2022-07-27T20:24:29.487Z,13.10
2022-07-27T20:26:57.588Z,13.10
2022-07-27T20:29:24.873Z,13.10
2022-07-27T20:31:55.435Z,13.10
2022-07-27T20:34:23.366Z,13.00
2022-07-27T20:36:50.551Z,13.10
2022-07-27T20:39:17.910Z,12.90
2022-07-27T20:41:48.278Z,12.80
2022-07-27T20:44:15.092Z,12.80
2022-07-27T20:46:41.822Z,12.70
2022-07-27T20:49:08.975Z,12.70
2022-07-27T20:51:35.852Z,12.60
2022-07-27T20:54:04.506Z,12.50
2022-07-27T20:56:32.122Z,12.40
2022-07-27T20:58:59.087Z,12.30
2022-07-27T21:01:26.220Z,12.20
2022-07-27T21:03:53.225Z,12.20
2022-07-27T21:06:20.088Z,12.10
2022-07-27T21:08:50.202Z,12.10
2022-07-27T21:11:17.109Z,12.10
2022-07-27T21:13:46.220Z,12.10
2022-07-27T21:16:20.571Z,11.90
2022-07-27T21:18:49.950Z,11.90
2022-07-27T21:21:22.946Z,11.70
2022-07-27T21:24:18.889Z,11.60
2022-07-27T21:26:53.187Z,11.60
2022-07-27T21:29:21.015Z,11.50
2022-07-27T21:31:51.019Z,11.30
2022-07-27T21:34:20.696Z,11.20
2022-07-27T21:36:48.554Z,11.10
2022-07-27T21:39:18.404Z,11.00
2022-07-27T21:41:45.911Z,10.90
2022-07-27T21:44:16.120Z,10.70
2022-07-27T21:46:46.564Z,10.70
2022-07-27T21:49:20.746Z,10.80
2022-07-27T21:52:01.430Z,10.70
2022-07-27T21:54:28.386Z,10.70
2022-07-27T21:56:55.488Z,10.60
2022-07-27T21:59:22.220Z,10.40
2022-07-27T22:01:49.286Z,10.40
2022-07-27T22:04:16.990Z,10.40
2022-07-27T22:06:47.218Z,10.40
2022-07-27T22:09:14.617Z,10.30
2022-07-27T22:11:41.478Z,10.20
2022-07-27T22:14:13.845Z,10.10
2022-07-27T22:16:43.395Z,10.20
2022-07-27T22:19:19.297Z,10.20
2022-07-27T22:21:46.327Z,10.10
2022-07-27T22:24:13.329Z,10.10
2022-07-27T22:26:40.557Z,10.10
2022-07-27T22:29:10.653Z,10.10
2022-07-27T22:31:40.526Z,10.00
2022-07-27T22:34:11.015Z,10.00
2022-07-27T22:36:38.310Z,10.00
2022-07-27T22:39:08.113Z,9.90
2022-07-27T22:41:35.192Z,9.70
2022-07-27T22:44:02.010Z,9.70
2022-07-27T22:46:32.318Z,9.70
2022-07-27T22:48:59.463Z,9.70
2022-07-27T22:51:26.458Z,9.60
2022-07-27T22:54:14.205Z,9.50
2022-07-27T22:56:41.386Z,9.50
2022-07-27T22:59:14.804Z,9.40
2022-07-27T23:01:46.978Z,9.50
2022-07-27T23:04:16.308Z,9.60
2022-07-27T23:06:43.584Z,9.60
2022-07-27T23:09:10.894Z,9.60
2022-07-27T23:11:40.703Z,9.70
2022-07-27T23:14:12.102Z,9.80
2022-07-27T23:16:45.387Z,9.80
2022-07-27T23:19:12.320Z,9.80
2022-07-27T23:21:41.789Z,9.70
2022-07-27T23:24:14.306Z,9.80
2022-07-27T23:26:41.968Z,9.70
2022-07-27T23:29:11.481Z,9.60
2022-07-27T23:31:38.603Z,9.50
2022-07-27T23:34:05.430Z,9.40
2022-07-27T23:36:32.212Z,9.40
2022-07-27T23:38:59.223Z,9.40
2022-07-27T23:41:27.053Z,9.30
2022-07-27T23:43:53.782Z,9.20
2022-07-27T23:46:20.671Z,9.20
2022-07-27T23:48:48.354Z,9.10
2022-07-27T23:51:19.743Z,9.10
2022-07-27T23:53:49.785Z,9.00
2022-07-27T23:56:16.736Z,9.00
2022-07-27T23:58:43.632Z,9.00
